Time;durP1;ratioP1;P1;durP2;ratioP2;P2;SDS_P1;SDS_P2;PMS_P1;PMS_P2;Temp;Humidity;BMP_temperature;BMP_pressure;BME280_temperature;BME280_humidity;BME280_pressure;Samples;Min_cycle;Max_cycle;Signal;HPM_P1;HPM_P2
2023/01/08 00:02:55;;;;;;;29.15;13.15;;;;;;;-8.89;61.47;101696.17;1745465;82;21233;-78
2023/01/08 00:06:01;;;;;;;31.05;13.13;;;;;;;-8.64;60.69;101691.44;1745603;82;21198;-78
2023/01/08 00:09:07;;;;;;;32.88;12.73;;;;;;;-8.78;60.99;101703.11;1744225;82;21860;-78
2023/01/08 00:12:12;;;;;;;34.60;17.07;;;;;;;-8.93;61.36;101700.66;1745540;82;21189;-78
2023/01/08 00:15:18;;;;;;;26.73;13.20;;;;;;;-8.83;61.35;101697.45;1745663;82;21194;-78
2023/01/08 00:18:25;;;;;;;27.87;13.20;;;;;;;-8.82;61.47;101699.19;1744790;82;21274;-79
2023/01/08 00:21:30;;;;;;;29.80;12.75;;;;;;;-8.66;60.88;101703.38;1745587;82;21194;-79
2023/01/08 00:24:37;;;;;;;39.92;14.90;;;;;;;-8.61;60.74;101701.57;1744238;82;21205;-80
2023/01/08 00:27:44;;;;;;;25.50;12.45;;;;;;;-8.43;60.38;101699.53;1745339;82;21788;-77
2023/01/08 00:30:49;;;;;;;30.27;12.30;;;;;;;-8.56;60.26;101705.03;1745519;82;21760;-77
2023/01/08 00:33:48;;;;;;;41.60;10.53;;;;;;;-8.69;60.45;101706.09;1745584;82;21745;-78
2023/01/08 00:36:54;;;;;;;31.20;12.98;;;;;;;-8.88;60.89;101708.56;1745519;82;21190;-77
2023/01/08 00:39:59;;;;;;;30.72;11.95;;;;;;;-8.81;61.06;101696.96;1744066;82;21209;-78
2023/01/08 00:43:04;;;;;;;28.55;11.05;;;;;;;-8.73;60.76;101698.20;1745562;82;21194;-78
2023/01/08 00:46:11;;;;;;;32.10;13.98;;;;;;;-8.99;61.70;101694.55;1745483;82;21183;-78
2023/01/08 00:49:16;;;;;;;33.20;13.15;;;;;;;-8.94;61.79;101700.21;1744592;82;21229;-78
2023/01/08 00:52:21;;;;;;;31.50;15.03;;;;;;;-8.71;61.10;101699.91;1745508;82;21190;-77
2023/01/08 00:55:28;;;;;;;38.28;15.32;;;;;;;-8.79;61.05;101700.48;1745694;82;21174;-78
2023/01/08 00:58:33;;;;;;;36.23;17.27;;;;;;;-9.10;61.81;101707.48;1745365;82;21181;-77
2023/01/08 01:01:39;;;;;;;38.95;17.50;;;;;;;-8.79;61.30;101712.42;1745551;82;21194;-78
2023/01/08 01:04:45;;;;;;;35.30;15.70;;;;;;;-8.95;61.34;101710.84;1745532;82;21201;-77
2023/01/08 01:07:51;;;;;;;40.60;15.10;;;;;;;-8.98;61.32;101711.78;1743959;81;21819;-78
2023/01/08 01:10:58;;;;;;;38.55;18.75;;;;;;;-9.05;61.81;101705.66;1745552;82;21205;-77
2023/01/08 01:14:03;;;;;;;42.00;15.75;;;;;;;-8.60;61.06;101709.08;1745560;82;21282;-77
2023/01/08 01:17:09;;;;;;;28.20;13.65;;;;;;;-8.87;61.05;101712.52;1745463;82;21788;-78
2023/01/08 01:20:16;;;;;;;34.73;16.10;;;;;;;-8.64;60.41;101712.21;1744229;82;21194;-78
2023/01/08 01:23:21;;;;;;;30.30;14.95;;;;;;;-8.31;59.71;101717.91;1745370;82;21193;-78
2023/01/08 01:26:28;;;;;;;38.58;18.87;;;;;;;-8.40;59.20;101713.64;1745509;82;21193;-77
2023/01/08 01:29:35;;;;;;;32.35;15.70;;;;;;;-8.48;58.82;101706.23;1744693;82;21213;-78
2023/01/08 01:32:39;;;;;;;36.20;18.45;;;;;;;-8.62;58.35;101702.45;1745612;82;21225;-78
2023/01/08 01:35:39;;;;;;;35.17;18.07;;;;;;;-9.18;59.19;101694.77;1744342;82;21194;-77
2023/01/08 01:38:43;;;;;;;42.25;23.75;;;;;;;-8.99;59.19;101695.86;1745436;82;21217;-77
2023/01/08 01:41:52;;;;;;;34.63;18.95;;;;;;;-9.08;59.36;101697.76;1745655;82;21236;-78
2023/01/08 01:44:57;;;;;;;34.40;14.87;;;;;;;-8.97;59.08;101706.90;1745718;82;21811;-78
2023/01/08 01:48:07;;;;;;;41.88;22.93;;;;;;;-9.05;59.22;101701.67;1745484;82;21252;-79
2023/01/08 01:51:12;;;;;;;31.55;16.10;;;;;;;-8.96;59.51;101696.72;1744216;82;21217;-77
2023/01/08 01:54:18;;;;;;;29.45;15.00;;;;;;;-9.18;59.07;101691.23;1744081;82;21213;-78
2023/01/08 01:57:23;;;;;;;29.18;17.80;;;;;;;-9.22;58.93;101701.02;1745386;82;21194;-76
2023/01/08 02:00:29;;;;;;;36.98;17.80;;;;;;;-9.21;58.80;101693.48;1744484;82;21233;-78
2023/01/08 02:03:38;;;;;;;32.25;17.73;;;;;;;-9.12;58.62;101703.11;1745490;82;21198;-77
2023/01/08 02:07:23;;;;;;;23.83;11.75;;;;;;;-9.03;58.48;101696.38;1745599;82;21407;-79
2023/01/08 02:10:49;;;;;;;24.10;10.08;;;;;;;-9.27;59.33;101703.72;1744487;82;21281;-78
2023/01/08 02:14:02;;;;;;;37.38;15.70;;;;;;;-9.20;59.46;101699.67;1745648;82;21194;-77
2023/01/08 02:17:12;;;;;;;28.02;11.75;;;;;;;-9.19;58.93;101705.39;1744176;82;21221;-77
2023/01/08 02:20:23;;;;;;;29.30;15.53;;;;;;;-9.31;59.46;101701.13;1744678;82;21227;-78
2023/01/08 02:23:39;;;;;;;30.37;15.00;;;;;;;-9.22;59.55;101698.37;1745560;82;21194;-78
2023/01/08 02:26:46;;;;;;;35.83;13.40;;;;;;;-9.29;59.55;101688.72;1745648;82;21240;-77
2023/01/08 02:29:51;;;;;;;28.95;12.07;;;;;;;-9.28;59.10;101704.59;1745212;82;21225;-79
2023/01/08 02:32:57;;;;;;;27.60;14.53;;;;;;;-9.44;59.11;101704.79;1745724;82;21724;-79
2023/01/08 02:36:38;;;;;;;24.23;12.98;;;;;;;-9.30;58.46;101698.89;1745633;82;21174;-79
2023/01/08 02:40:01;;;;;;;;;;;;;;;-9.45;59.03;101699.07;1747480;82;21272;-79
2023/01/08 02:43:23;;;;;;;26.62;16.40;;;;;;;-9.46;59.59;101698.16;1745703;82;20247;-78
2023/01/08 02:46:32;;;;;;;26.48;15.03;;;;;;;-9.49;59.32;101703.97;1745684;82;21201;-77
2023/01/08 02:49:38;;;;;;;27.02;13.55;;;;;;;-9.38;58.91;101701.61;1745643;82;21233;-77
2023/01/08 02:52:55;;;;;;;31.75;16.23;;;;;;;-9.10;58.16;101703.51;1745718;82;21185;-77
2023/01/08 02:56:04;;;;;;;23.62;9.58;;;;;;;-9.40;58.64;101709.17;1744948;82;21273;-78
2023/01/08 02:59:11;;;;;;;26.48;12.53;;;;;;;-9.50;59.03;101697.80;1745887;82;21222;-78
2023/01/08 03:02:18;;;;;;;24.77;11.50;;;;;;;-9.24;58.77;101696.16;1745924;82;21201;-77
2023/01/08 03:05:32;;;;;;;26.48;12.68;;;;;;;-9.31;58.28;101711.27;1720481;82;21134;-80
2023/01/08 03:08:40;;;;;;;26.60;10.55;;;;;;;-9.41;58.08;101715.34;1745553;82;21826;-78
2023/01/08 03:12:02;;;;;;;26.85;10.32;;;;;;;-9.37;58.42;101721.91;1744483;82;21787;-78
2023/01/08 03:15:13;;;;;;;24.27;13.68;;;;;;;-9.22;58.06;101717.34;1745617;82;21241;-78
2023/01/08 03:18:21;;;;;;;21.77;11.45;;;;;;;-9.33;57.95;101710.84;1745768;82;21744;-78
2023/01/08 03:21:26;;;;;;;23.80;12.53;;;;;;;-9.15;57.41;101715.06;1744670;82;21804;-77
2023/01/08 03:24:35;;;;;;;27.35;17.32;;;;;;;-9.26;57.02;101721.83;1745592;82;21193;-77
2023/01/08 03:27:41;;;;;;;33.25;17.30;;;;;;;-9.42;57.63;101710.94;1744066;82;21292;-77
2023/01/08 03:30:47;;;;;;;29.50;16.07;;;;;;;-9.37;57.35;101705.14;1745011;82;21230;-77
2023/01/08 03:34:02;;;;;;;31.05;20.20;;;;;;;-9.27;57.30;101708.11;1861510;76;27961;-77
2023/01/08 03:37:09;;;;;;;19.65;11.53;;;;;;;-9.23;57.49;101695.27;1781582;80;21189;-77
2023/01/08 03:40:22;;;;;;;23.20;12.20;;;;;;;-9.18;57.38;101705.81;1784729;79;21322;-77
2023/01/08 03:43:29;;;;;;;22.95;11.33;;;;;;;-9.13;57.62;101707.51;1746233;82;21192;-77
2023/01/08 03:46:40;;;;;;;36.25;21.65;;;;;;;-9.10;57.55;101710.59;1747043;82;21181;-77
2023/01/08 03:49:46;;;;;;;22.48;11.68;;;;;;;-9.21;57.58;101718.67;1747185;82;21204;-77
2023/01/08 03:52:51;;;;;;;29.02;14.75;;;;;;;-9.33;58.13;101715.69;1747726;82;21209;-77
2023/01/08 03:55:59;;;;;;;30.15;16.48;;;;;;;-9.31;58.60;101731.14;1747242;82;21192;-77
2023/01/08 03:59:05;;;;;;;26.15;11.75;;;;;;;-9.39;59.04;101722.39;1747347;82;21197;-77
2023/01/08 04:02:11;;;;;;;31.07;13.68;;;;;;;-9.39;58.68;101722.39;1747113;82;21316;-78
2023/01/08 04:05:17;;;;;;;25.85;14.38;;;;;;;-9.53;59.08;101734.45;1747176;82;21501;-78
2023/01/08 04:08:23;;;;;;;31.42;20.25;;;;;;;-9.60;59.27;101728.77;1747273;82;21193;-77
2023/01/08 04:11:28;;;;;;;30.32;14.30;;;;;;;-9.51;59.23;101742.37;1747208;82;21177;-77
2023/01/08 04:14:38;;;;;;;26.37;13.05;;;;;;;-9.53;58.68;101733.12;1747256;82;21740;-78
2023/01/08 04:17:44;;;;;;;22.20;10.90;;;;;;;-9.92;59.65;101742.31;1747262;82;21782;-78
2023/01/08 04:20:54;;;;;;;31.30;12.78;;;;;;;-9.58;59.78;101744.22;1745922;82;21200;-78
2023/01/08 04:23:58;;;;;;;;;;;;;;;-9.15;59.03;101733.62;1749574;82;21348;-78
2023/01/08 04:27:04;;;;;;;22.13;12.98;;;;;;;-9.36;59.43;101742.66;1754199;82;20221;-78
2023/01/08 04:30:10;;;;;;;23.92;10.65;;;;;;;-9.18;58.77;101737.17;1754234;82;21188;-78
2023/01/08 04:33:15;;;;;;;27.48;10.78;;;;;;;-9.13;58.77;101739.32;1745148;82;22526;-78
2023/01/08 04:36:21;;;;;;;32.63;13.35;;;;;;;-9.08;58.96;101736.20;1725213;83;21811;-78
2023/01/08 04:39:26;;;;;;;28.45;12.70;;;;;;;-8.80;58.12;101729.21;1725167;83;21266;-78
2023/01/08 04:42:32;;;;;;;33.20;19.48;;;;;;;-9.22;58.55;101725.29;1726752;83;21209;-78
2023/01/08 04:45:37;;;;;;;30.77;16.73;;;;;;;-9.29;59.04;101736.42;1726016;83;21249;-78
2023/01/08 04:48:44;;;;;;;28.27;14.15;;;;;;;-9.08;58.67;101736.20;1725104;83;21225;-79
2023/01/08 04:51:50;;;;;;;28.60;12.50;;;;;;;-8.92;58.00;101742.19;1734051;82;21193;-80
2023/01/08 04:54:56;;;;;;;30.88;17.55;;;;;;;-9.12;57.98;101746.41;1732813;83;21217;-79
2023/01/08 04:57:55;;;;;;;41.18;25.27;;;;;;;-9.35;58.39;101749.74;1733027;83;21193;-77
2023/01/08 05:01:00;;;;;;;27.87;15.95;;;;;;;-9.58;58.80;101753.94;1734161;82;21744;-77
2023/01/08 05:04:09;;;;;;;34.18;16.55;;;;;;;-9.41;58.62;101756.41;1733303;83;21237;-78
2023/01/08 05:07:15;;;;;;;29.92;13.22;;;;;;;-9.41;58.53;101754.66;1734379;83;21233;-77
2023/01/08 05:10:20;;;;;;;45.48;16.20;;;;;;;-9.24;58.51;101755.80;1734106;83;21200;-77
2023/01/08 05:13:26;;;;;;;39.65;19.80;;;;;;;-9.12;58.01;101750.38;1732601;83;21233;-78
2023/01/08 05:16:33;;;;;;;34.38;18.05;;;;;;;-9.23;58.13;101754.90;1734019;83;21795;-78
2023/01/08 05:19:38;;;;;;;30.25;13.80;;;;;;;-9.29;58.56;101753.20;1733158;82;21784;-77
2023/01/08 05:22:44;;;;;;;24.65;12.93;;;;;;;-9.19;58.66;101756.63;1734042;83;21764;-79
2023/01/08 05:25:50;;;;;;;30.00;14.38;;;;;;;-9.06;58.25;101756.93;1734099;83;21761;-79
2023/01/08 05:28:57;;;;;;;30.57;16.90;;;;;;;-9.09;58.04;101758.73;1734198;83;22497;-80
2023/01/08 05:32:02;;;;;;;35.83;19.15;;;;;;;-9.44;58.75;101765.73;1734155;83;21193;-80
2023/01/08 05:35:09;;;;;;;38.92;20.23;;;;;;;-9.25;58.80;101772.60;1754192;81;21204;-79
2023/01/08 05:38:14;;;;;;;35.40;21.02;;;;;;;-9.31;58.65;101763.39;1772797;81;21834;-79
2023/01/08 05:41:19;;;;;;;38.60;19.73;;;;;;;-9.41;58.54;101773.63;1772790;81;21838;-80
2023/01/08 05:44:25;;;;;;;29.23;15.93;;;;;;;-9.42;58.77;101782.48;1772320;81;21732;-79
2023/01/08 05:47:32;;;;;;;42.80;23.22;;;;;;;-9.18;58.34;101781.36;1771347;81;21236;-80
2023/01/08 05:50:31;;;;;;;33.83;18.50;;;;;;;-9.26;58.32;101780.13;1749244;81;21221;-79
2023/01/08 05:53:23;;;;;;;39.08;22.87;;;;;;;-9.17;58.32;101778.71;1771286;81;21189;-80
2023/01/08 05:56:29;;;;;;;35.40;20.27;;;;;;;-9.23;58.06;101790.67;1772703;81;21165;-79
2023/01/08 05:59:28;;;;;;;27.75;13.78;;;;;;;-9.47;58.46;101792.24;1772760;81;21181;-78
2023/01/08 06:02:34;;;;;;;47.58;25.27;;;;;;;-9.35;58.64;101797.44;1771394;81;21240;-78
2023/01/08 06:05:39;;;;;;;34.48;18.90;;;;;;;-9.33;58.67;101797.84;1771379;81;21213;-78
2023/01/08 06:08:45;;;;;;;32.83;15.40;;;;;;;-9.21;58.56;101795.53;1772838;81;21177;-78
2023/01/08 06:11:52;;;;;;;43.63;17.75;;;;;;;-9.12;58.51;101796.77;1772914;81;21158;-78
2023/01/08 06:14:58;;;;;;;40.52;17.45;;;;;;;-9.13;58.70;101796.31;1771994;81;21760;-78
2023/01/08 06:18:03;;;;;;;43.02;16.15;;;;;;;-8.99;58.40;101801.92;1772795;81;21129;-77
2023/01/08 06:21:12;;;;;;;37.08;20.45;;;;;;;-9.27;58.74;101796.48;1771571;81;21264;-77
2023/01/08 06:24:17;;;;;;;43.63;21.75;;;;;;;-9.18;59.15;101792.84;1772791;81;21856;-77
2023/01/08 06:27:23;;;;;;;42.30;20.43;;;;;;;-9.10;59.19;101797.62;1771489;81;21179;-77
2023/01/08 06:30:29;;;;;;;30.35;18.00;;;;;;;-9.24;59.32;101795.55;1771295;81;21196;-78
2023/01/08 06:33:34;;;;;;;25.35;11.80;;;;;;;-9.32;59.54;101785.47;1772762;81;22502;-77
2023/01/08 06:36:33;;;;;;;34.70;13.58;;;;;;;-9.41;60.07;101792.17;1771242;81;21319;-77
2023/01/08 06:39:40;;;;;;;31.60;15.28;;;;;;;-9.33;60.04;101802.27;1771251;81;21228;-77
2023/01/08 06:42:46;;;;;;;35.83;17.50;;;;;;;-9.56;60.43;101802.02;1772729;81;21177;-78
2023/01/08 06:45:54;;;;;;;37.48;15.65;;;;;;;-9.12;59.60;101790.59;1762276;81;21215;-78
2023/01/08 06:48:59;;;;;;;32.03;15.28;;;;;;;-9.29;59.96;101786.77;1731284;81;21177;-78
2023/01/08 06:52:06;;;;;;;38.35;17.32;;;;;;;-9.13;59.24;101783.06;1763786;81;21163;-78
2023/01/08 06:55:05;;;;;;;37.30;18.02;;;;;;;-9.23;58.37;101782.73;1762998;81;21202;-77
2023/01/08 06:58:11;;;;;;;31.27;16.73;;;;;;;-9.17;58.07;101784.02;1758880;81;21179;-77
2023/01/08 07:01:21;;;;;;;33.55;17.32;;;;;;;-9.36;58.03;101777.11;1758598;81;22484;-78
2023/01/08 07:04:27;;;;;;;39.13;19.65;;;;;;;-9.32;57.67;101783.69;1764057;81;21179;-78
2023/01/08 07:07:33;;;;;;;37.60;19.50;;;;;;;-9.33;57.39;101793.87;1758933;81;21163;-78
2023/01/08 07:10:41;;;;;;;28.77;14.53;;;;;;;-9.15;57.64;101796.79;1762112;81;21211;-78
2023/01/08 07:13:46;;;;;;;28.20;15.23;;;;;;;-9.01;58.33;101794.88;1739761;81;21163;-77
2023/01/08 07:16:52;;;;;;;34.92;14.07;;;;;;;-8.93;58.90;101794.80;1753183;81;21159;-77
2023/01/08 07:19:57;;;;;;;32.67;14.55;;;;;;;-9.22;60.16;101784.92;1765224;81;21738;-77
2023/01/08 07:22:58;;;;;;;27.35;11.95;;;;;;;-9.46;60.77;101784.72;1750537;81;21202;-78
2023/01/08 07:26:10;;;;;;;30.72;12.55;;;;;;;-9.15;60.42;101790.61;1726444;82;21171;-78
2023/01/08 07:29:16;;;;;;;31.35;15.03;;;;;;;-9.07;60.35;101804.23;1753399;81;21174;-78
2023/01/08 07:32:21;;;;;;;28.32;16.90;;;;;;;-8.79;58.73;101803.48;1772767;81;21233;-78
2023/01/08 07:35:27;;;;;;;26.80;13.60;;;;;;;-8.58;58.01;101804.98;1770666;81;21234;-78
2023/01/08 07:38:32;;;;;;;26.40;11.88;;;;;;;-8.90;58.47;101808.45;1773142;81;21237;-78
2023/01/08 07:41:37;;;;;;;35.68;17.55;;;;;;;-8.52;57.78;101811.53;1813474;79;21224;-78
2023/01/08 07:44:43;;;;;;;31.73;16.25;;;;;;;-8.51;56.73;101813.31;1813465;79;21180;-78
2023/01/08 07:47:49;;;;;;;25.75;12.18;;;;;;;-8.60;56.25;101813.42;1813432;79;21573;-79
2023/01/08 07:50:55;;;;;;;29.10;12.65;;;;;;;-8.22;56.14;101818.66;1813525;79;21168;-78
2023/01/08 07:54:00;;;;;;;38.02;19.95;;;;;;;-8.25;56.20;101822.67;1813296;79;21185;-77
2023/01/08 07:57:06;;;;;;;37.17;14.75;;;;;;;-8.16;55.82;101823.00;1812566;79;21196;-78
2023/01/08 08:00:13;;;;;;;22.48;9.98;;;;;;;-8.38;56.04;101823.75;1813512;79;21714;-78
2023/01/08 08:03:18;;;;;;;26.95;11.45;;;;;;;-8.67;57.20;101831.62;1774872;81;21181;-78
2023/01/08 08:06:25;;;;;;;29.85;13.45;;;;;;;-8.66;56.53;101841.33;1812944;79;21731;-78
2023/01/08 08:09:30;;;;;;;29.70;11.12;;;;;;;-8.44;56.19;101838.44;1813608;79;21161;-78
2023/01/08 08:12:35;;;;;;;28.20;12.23;;;;;;;-8.28;55.73;101848.83;1813507;79;21228;-77
2023/01/08 08:15:42;;;;;;;33.10;14.47;;;;;;;-8.05;54.91;101844.96;1813447;79;21180;-78
2023/01/08 08:18:49;;;;;;;23.18;12.90;;;;;;;-7.96;54.24;101846.16;1813552;79;21283;-78
2023/01/08 08:21:54;;;;;;;30.08;13.55;;;;;;;-7.97;53.71;101851.93;1813214;79;21196;-77
2023/01/08 08:25:01;;;;;;;24.60;9.73;;;;;;;-7.92;53.59;101850.98;1813661;79;21180;-77
2023/01/08 08:28:07;;;;;;;36.38;18.98;;;;;;;-7.87;53.83;101850.02;1773539;81;21256;-77
2023/01/08 08:31:14;;;;;;;28.75;14.83;;;;;;;-8.09;53.70;101844.57;1813609;79;21177;-79
2023/01/08 08:34:21;;;;;;;32.78;14.47;;;;;;;-7.81;52.65;101837.09;1813573;79;21271;-78
2023/01/08 08:37:27;;;;;;;31.25;11.70;;;;;;;-7.79;53.09;101836.63;1810654;79;21215;-78
2023/01/08 08:40:33;;;;;;;30.65;13.00;;;;;;;-7.89;53.37;101837.22;1809976;79;21255;-78
2023/01/08 08:43:39;;;;;;;26.73;13.15;;;;;;;-7.74;53.32;101835.66;1809815;79;21866;-78
2023/01/08 08:46:45;;;;;;;21.25;12.23;;;;;;;-7.87;53.83;101824.78;1810969;79;22478;-79
2023/01/08 08:49:52;;;;;;;29.55;13.93;;;;;;;-7.96;54.83;101827.57;1811207;79;21805;-78
2023/01/08 08:52:52;;;;;;;30.88;12.78;;;;;;;-7.85;53.79;101817.69;1810875;79;21188;-77
2023/01/08 08:55:58;;;;;;;33.18;12.82;;;;;;;-7.73;53.84;101823.25;1811234;79;21156;-78
2023/01/08 08:59:05;;;;;;;28.07;13.32;;;;;;;-7.60;52.85;101816.84;1811088;79;21172;-78
2023/01/08 09:02:11;;;;;;;39.53;15.30;;;;;;;-7.88;52.95;101818.17;1786030;79;21743;-78
2023/01/08 09:05:18;;;;;;;30.72;13.88;;;;;;;-7.75;53.53;101823.73;1811325;79;21208;-78
2023/01/08 09:08:24;;;;;;;26.73;12.93;;;;;;;-7.44;53.45;101824.56;1809926;79;21196;-78
2023/01/08 09:11:29;;;;;;;30.35;13.10;;;;;;;-7.51;52.66;101807.39;1811310;79;21711;-79
2023/01/08 09:14:35;;;;;;;29.95;12.03;;;;;;;-7.48;52.90;101814.00;1811088;79;21173;-77
2023/01/08 09:17:42;;;;;;;32.35;15.60;;;;;;;-7.45;52.62;101810.39;1810562;79;21209;-78
2023/01/08 09:20:48;;;;;;;30.40;12.95;;;;;;;-7.25;52.50;101818.90;1811195;79;21177;-78
2023/01/08 09:23:49;;;;;;;24.47;10.23;;;;;;;-7.08;51.94;101815.08;1809611;79;21223;-77
2023/01/08 09:26:56;;;;;;;24.85;11.40;;;;;;;-6.91;51.35;101808.12;1811213;79;21161;-77
2023/01/08 09:30:01;;;;;;;22.32;10.10;;;;;;;-7.03;50.94;101802.11;1811482;79;21805;-78
2023/01/08 09:33:09;;;;;;;26.50;10.85;;;;;;;-7.53;52.20;101805.23;1811263;79;21183;-77
2023/01/08 09:36:19;;;;;;;23.67;12.15;;;;;;;-7.33;51.52;101801.34;1811521;79;21184;-77
2023/01/08 09:39:26;;;;;;;26.75;11.70;;;;;;;-7.40;51.35;101803.22;1804451;79;21204;-78
2023/01/08 09:42:34;;;;;;;32.08;14.80;;;;;;;-7.37;51.42;101789.88;1802820;79;21169;-78
2023/01/08 09:45:42;;;;;;;26.25;9.70;;;;;;;-7.35;51.59;101792.05;1803387;79;21248;-78
2023/01/08 09:48:49;;;;;;;29.72;12.10;;;;;;;-7.44;51.56;101784.69;1763707;81;21186;-77
2023/01/08 09:51:55;;;;;;;28.80;15.50;;;;;;;-7.24;51.27;101787.89;1802790;79;21170;-77
2023/01/08 09:55:01;;;;;;;25.02;10.55;;;;;;;-7.15;50.78;101784.16;1801270;79;21212;-78
2023/01/08 09:58:07;;;;;;;33.20;14.33;;;;;;;-7.33;50.58;101774.77;1784995;79;21203;-78
2023/01/08 10:01:14;;;;;;;24.57;12.85;;;;;;;-6.89;50.45;101775.25;1802643;79;21189;-78
2023/01/08 10:04:27;;;;;;;33.98;13.80;;;;;;;-6.99;50.84;101763.91;1802664;79;21157;-78
2023/01/08 10:07:35;;;;;;;21.75;9.98;;;;;;;-6.95;50.57;101765.61;1801281;79;21817;-78
2023/01/08 10:10:42;;;;;;;24.07;15.05;;;;;;;-7.12;50.96;101752.20;1802732;79;21724;-78
2023/01/08 10:13:52;;;;;;;23.15;10.80;;;;;;;-7.00;51.21;101755.52;1802709;79;21177;-78
2023/01/08 10:17:12;;;;;;;26.68;14.35;;;;;;;-6.66;50.68;101755.29;1802869;79;21188;-78
2023/01/08 10:20:21;;;;;;;;;;;;;;;-6.52;50.57;101750.09;1805437;79;21173;-79
2023/01/08 10:23:27;;;;;;;29.07;11.88;;;;;;;-6.60;50.33;101752.03;1802860;79;20216;-78
2023/01/08 10:26:43;;;;;;;28.65;14.93;;;;;;;-6.29;49.17;101751.38;1802674;79;21220;-78
2023/01/08 10:29:51;;;;;;;30.25;13.78;;;;;;;-6.27;49.41;101749.09;1801371;79;22438;-78
2023/01/08 10:33:00;;;;;;;25.90;10.88;;;;;;;-6.10;49.47;101742.06;1802711;79;22514;-78
2023/01/08 10:36:12;;;;;;;29.35;13.85;;;;;;;-6.26;49.77;101741.97;1802740;79;21177;-78
2023/01/08 10:39:25;;;;;;;30.45;17.80;;;;;;;-6.24;50.05;101746.83;1801309;79;22508;-78
2023/01/08 10:42:30;;;;;;;31.87;15.23;;;;;;;-6.07;50.10;101747.33;1813529;79;21169;-78
2023/01/08 10:45:36;;;;;;;28.70;12.53;;;;;;;-5.92;50.40;101744.29;1813489;79;21161;-78
2023/01/08 10:48:53;;;;;;;26.70;14.10;;;;;;;-5.96;50.88;101737.73;1813164;79;21755;-78
2023/01/08 10:52:00;;;;;;;30.80;14.47;;;;;;;-5.68;50.24;101736.11;1813626;79;21282;-79
2023/01/08 10:55:39;;;;;;;27.67;12.07;;;;;;;-5.78;49.39;101734.59;1812883;79;21203;-78
2023/01/08 10:58:49;;;;;;;27.60;14.25;;;;;;;-5.80;49.41;101744.86;1813129;79;21263;-77
2023/01/08 11:01:56;;;;;;;30.23;13.40;;;;;;;-5.69;49.24;101750.36;1813610;79;21228;-78
2023/01/08 11:05:03;;;;;;;30.17;12.40;;;;;;;-5.67;48.90;101747.65;1813594;79;21164;-78
2023/01/08 11:08:11;;;;;;;25.82;11.73;;;;;;;-5.62;49.09;101743.53;1813501;79;21244;-78
2023/01/08 11:11:17;;;;;;;;;;;;;;;-5.40;48.40;101741.62;1814721;79;21212;-77
2023/01/08 11:14:38;;;;;;;18.17;9.43;;;;;;;-5.35;48.46;101737.50;1813395;79;20212;-78
2023/01/08 11:17:44;;;;;;;21.62;9.60;;;;;;;-5.33;47.91;101745.45;1774915;81;21232;-78
2023/01/08 11:20:50;;;;;;;28.60;11.25;;;;;;;-5.82;48.54;101752.91;1743013;82;21196;-78
2023/01/08 11:24:25;;;;;;;28.32;12.43;;;;;;;-5.80;49.19;101743.07;1811977;79;21740;-78
2023/01/08 11:27:41;;;;;;;25.95;10.08;;;;;;;-5.64;48.98;101739.59;1811810;79;21220;-78
2023/01/08 11:30:46;;;;;;;26.40;11.78;;;;;;;-5.79;48.87;101740.81;1813559;79;21169;-78
2023/01/08 11:33:53;;;;;;;27.52;11.75;;;;;;;-5.71;48.42;101754.84;1812014;79;21727;-79
2023/01/08 11:37:21;;;;;;;23.10;10.43;;;;;;;-5.53;48.50;101740.64;1813461;79;21280;-79
2023/01/08 11:40:31;;;;;;;20.43;9.60;;;;;;;-5.41;48.78;101738.97;1811099;79;21220;-78
2023/01/08 11:44:01;;;;;;;23.12;11.15;;;;;;;-5.38;48.31;101750.91;1812038;79;21334;-78
2023/01/08 11:47:17;;;;;;;26.57;11.45;;;;;;;-5.51;48.69;101755.66;1813525;79;21173;-78
2023/01/08 11:50:44;;;;;;;24.25;11.90;;;;;;;-5.36;48.87;101753.09;1812477;79;21224;-78
2023/01/08 11:54:12;;;;;;;21.48;10.72;;;;;;;-5.54;49.79;101761.09;1813505;79;21168;-79
2023/01/08 11:57:31;;;;;;;23.30;10.55;;;;;;;-5.30;49.41;101757.38;1813513;79;21228;-78
2023/01/08 12:01:03;;;;;;;26.85;10.55;;;;;;;-5.33;49.36;101750.78;1812472;79;21208;-78
2023/01/08 12:04:24;;;;;;;21.35;10.43;;;;;;;-5.31;49.12;101754.30;1812092;79;21240;-78
2023/01/08 12:07:43;;;;;;;23.65;10.98;;;;;;;-5.20;48.97;101750.42;1813570;79;21180;-78
2023/01/08 12:11:15;;;;;;;25.85;12.33;;;;;;;-5.23;49.03;101745.61;1723368;79;21771;-78
2023/01/08 12:14:52;;;;;;;29.15;11.28;;;;;;;-5.20;48.88;101748.22;1811933;79;21188;-77
2023/01/08 12:18:23;;;;;;;24.65;11.22;;;;;;;-5.29;48.72;101751.13;1813535;79;21224;-77
2023/01/08 12:21:59;;;;;;;31.65;12.05;;;;;;;-5.06;48.68;101746.51;1813680;79;21176;-77
2023/01/08 12:25:25;;;;;;;29.60;11.35;;;;;;;-5.08;49.25;101746.56;1813549;79;21177;-77
2023/01/08 12:28:45;;;;;;;23.12;10.95;;;;;;;-4.74;48.27;101738.94;1813511;79;21177;-79
2023/01/08 12:32:21;;;;;;;27.77;11.22;;;;;;;-4.79;48.55;101744.87;1813649;79;21173;-79
2023/01/08 12:35:33;;;;;;;30.08;11.70;;;;;;;-4.78;48.49;101739.94;1813619;79;22009;-78
2023/01/08 12:38:43;;;;;;;24.20;10.98;;;;;;;-4.97;48.69;101743.59;1813343;79;21267;-78
2023/01/08 12:41:48;;;;;;;24.40;11.10;;;;;;;-4.97;48.82;101745.80;1811004;79;21267;-78
2023/01/08 12:44:53;;;;;;;26.10;12.53;;;;;;;-5.07;49.26;101746.09;1811405;79;21173;-78
2023/01/08 12:48:13;;;;;;;22.90;10.65;;;;;;;-5.10;49.17;101743.04;1811250;79;21176;-77
2023/01/08 12:51:38;;;;;;;22.73;9.57;;;;;;;-5.07;49.34;101741.63;1810380;79;21177;-78
2023/01/08 12:55:11;;;;;;;23.65;10.98;;;;;;;-5.00;49.55;101731.66;1811442;79;21177;-77
2023/01/08 12:58:38;;;;;;;20.32;8.10;;;;;;;-4.79;49.49;101739.06;1781105;79;21223;-77
2023/01/08 13:02:05;;;;;;;28.35;11.68;;;;;;;-5.08;49.50;101745.66;1809687;79;21224;-78
2023/01/08 13:05:28;;;;;;;20.55;9.43;;;;;;;-5.18;49.59;101740.56;1809787;79;21180;-78
2023/01/08 13:08:39;;;;;;;39.55;12.47;;;;;;;-5.07;50.09;101750.10;1772859;81;21766;-78
2023/01/08 13:11:47;;;;;;;25.72;9.65;;;;;;;-5.38;50.54;101750.91;1740842;82;21842;-79
2023/01/08 13:14:54;;;;;;;21.25;9.60;;;;;;;-5.33;50.12;101756.12;1772743;81;21185;-78
2023/01/08 13:18:06;;;;;;;21.85;8.20;;;;;;;-5.31;49.85;101760.97;1742228;82;21301;-78
2023/01/08 13:21:15;;;;;;;24.35;8.33;;;;;;;-5.43;50.40;101755.02;1741264;82;21247;-78
2023/01/08 13:24:43;;;;;;;17.90;7.92;;;;;;;-5.30;50.29;101751.58;1742112;82;21188;-78
2023/01/08 13:27:49;;;;;;;17.50;8.08;;;;;;;-5.18;50.01;101763.70;1741231;82;21762;-79
2023/01/08 13:30:55;;;;;;;24.35;9.98;;;;;;;-5.14;49.74;101757.38;1741943;82;21184;-78
2023/01/08 13:34:02;;;;;;;21.20;7.90;;;;;;;-5.04;49.62;101760.20;1742330;82;21223;-78
2023/01/08 13:37:07;;;;;;;23.12;8.83;;;;;;;-4.90;49.68;101757.16;1742114;82;21192;-78
2023/01/08 13:40:48;;;;;;;23.20;9.05;;;;;;;-4.52;48.81;101761.86;1739989;82;21207;-78
2023/01/08 13:43:48;;;;;;;19.70;10.05;;;;;;;-4.51;48.86;101761.84;1736387;82;22584;-78
2023/01/08 13:47:00;;;;;;;21.65;7.70;;;;;;;-4.60;49.33;101771.91;1801238;79;21181;-78
2023/01/08 13:50:05;;;;;;;22.07;8.75;;;;;;;-4.94;49.67;101769.73;1802606;79;21185;-78
2023/01/08 13:53:13;;;;;;;22.27;9.33;;;;;;;-4.71;49.60;101772.20;1764412;81;21303;-78
2023/01/08 13:56:20;;;;;;;24.65;9.75;;;;;;;-4.88;49.88;101767.35;1734206;82;21193;-78
2023/01/08 13:59:48;;;;;;;22.42;8.58;;;;;;;-4.90;50.19;101760.70;1785670;79;21220;-78
2023/01/08 14:02:54;;;;;;;30.23;9.88;;;;;;;-4.92;50.48;101761.68;1802789;79;21213;-78
2023/01/08 14:05:59;;;;;;;31.82;10.18;;;;;;;-5.15;50.86;101760.97;1764495;81;21170;-77
2023/01/08 14:09:10;;;;;;;20.08;9.08;;;;;;;-5.09;51.08;101761.25;1803025;79;21181;-78
2023/01/08 14:12:21;;;;;;;23.92;11.20;;;;;;;-5.27;51.51;101758.61;1763510;81;21347;-77
2023/01/08 14:15:34;;;;;;;27.45;12.10;;;;;;;-5.30;51.64;101754.71;1802753;79;21735;-80
2023/01/08 14:18:42;;;;;;;247.70;85.30;;;;;;;-5.36;51.89;101756.19;1802620;79;21355;-78
2023/01/08 14:21:47;;;;;;;141.43;47.85;;;;;;;-5.44;52.40;101753.73;1801929;79;21771;-78
2023/01/08 14:24:56;;;;;;;33.30;16.70;;;;;;;-5.60;52.66;101749.23;1802680;79;21720;-77